createdAt,value
2023-03-31T00:00:27.668Z,1.80
2023-03-31T00:01:27.646Z,1.80
2023-03-31T00:02:27.716Z,2.00
2023-03-31T00:03:27.767Z,1.90
2023-03-31T00:04:27.596Z,2.60
2023-03-31T00:05:27.548Z,1.80
2023-03-31T00:06:27.534Z,2.60
2023-03-31T00:07:27.493Z,2.70
2023-03-31T00:08:27.476Z,2.20
2023-03-31T00:09:27.447Z,2.20
2023-03-31T00:10:27.430Z,1.90
2023-03-31T00:11:27.398Z,1.80
2023-03-31T00:12:27.383Z,2.00
2023-03-31T00:13:27.362Z,2.10
2023-03-31T00:14:27.330Z,2.20
2023-03-31T00:15:27.327Z,2.30
2023-03-31T00:16:27.324Z,2.10
2023-03-31T00:17:27.258Z,1.80
2023-03-31T00:18:27.233Z,2.60
2023-03-31T00:19:27.233Z,2.40
2023-03-31T00:20:27.190Z,2.30
2023-03-31T00:21:27.155Z,2.60
2023-03-31T00:22:27.137Z,2.30
2023-03-31T00:23:27.112Z,2.00
2023-03-31T00:24:27.096Z,2.20
2023-03-31T00:25:27.058Z,2.30
2023-03-31T00:26:27.038Z,2.80
2023-03-31T00:27:27.011Z,2.40
2023-03-31T00:28:26.990Z,2.80
2023-03-31T00:29:26.968Z,2.20
2023-03-31T00:30:26.951Z,2.50
2023-03-31T00:31:26.937Z,2.10
2023-03-31T00:32:26.899Z,2.60
2023-03-31T00:33:26.875Z,2.70
2023-03-31T00:34:26.847Z,2.40
2023-03-31T00:35:26.847Z,2.50
2023-03-31T00:36:26.794Z,2.40
2023-03-31T00:37:26.763Z,3.10
2023-03-31T00:38:26.744Z,2.80
2023-03-31T00:39:26.717Z,2.70
2023-03-31T00:40:26.692Z,3.10
2023-03-31T00:41:26.669Z,3.00
2023-03-31T00:42:26.647Z,2.80
2023-03-31T00:43:26.622Z,2.80
2023-03-31T00:44:26.599Z,2.60
2023-03-31T00:45:26.600Z,3.10
2023-03-31T00:46:26.582Z,2.70
2023-03-31T00:47:26.525Z,2.50
2023-03-31T00:48:26.503Z,2.80
2023-03-31T00:49:26.484Z,2.70
2023-03-31T00:50:26.461Z,2.90
2023-03-31T00:51:26.450Z,2.60
2023-03-31T00:52:26.421Z,2.70
2023-03-31T00:53:26.394Z,2.80
2023-03-31T00:54:26.360Z,2.80
2023-03-31T00:55:26.325Z,2.50
2023-03-31T00:56:26.304Z,2.40
2023-03-31T00:57:26.476Z,2.70
2023-03-31T00:58:26.255Z,2.60
2023-03-31T00:59:26.229Z,2.10
2023-03-31T01:00:26.208Z,2.80
2023-03-31T01:01:26.198Z,2.30
2023-03-31T01:02:26.216Z,3.20
2023-03-31T01:03:26.157Z,2.50
2023-03-31T01:04:26.130Z,2.60
2023-03-31T01:05:26.093Z,2.50
2023-03-31T01:06:26.064Z,2.60
2023-03-31T01:07:26.056Z,3.10
2023-03-31T01:08:26.015Z,2.70
2023-03-31T01:09:25.992Z,2.70
2023-03-31T01:10:25.970Z,3.10
2023-03-31T01:11:25.935Z,2.50
2023-03-31T01:12:25.922Z,2.60
2023-03-31T01:13:25.896Z,2.70
2023-03-31T01:14:25.868Z,2.50
2023-03-31T01:16:48.507Z,2.80
2023-03-31T01:17:48.502Z,2.40
2023-03-31T01:18:48.388Z,2.50
2023-03-31T01:19:48.363Z,2.60
2023-03-31T01:20:48.332Z,2.20
2023-03-31T01:21:48.312Z,2.20
2023-03-31T01:22:48.305Z,2.10
2023-03-31T01:23:48.275Z,2.20
2023-03-31T01:24:48.273Z,2.20
2023-03-31T01:25:48.213Z,2.10
2023-03-31T01:26:48.196Z,2.70
2023-03-31T01:27:48.162Z,2.40
2023-03-31T01:28:48.140Z,3.40
2023-03-31T01:29:48.123Z,3.10
2023-03-31T01:30:48.085Z,2.20
2023-03-31T01:31:48.202Z,2.60
2023-03-31T01:32:48.103Z,2.30
2023-03-31T01:33:48.015Z,2.90
2023-03-31T01:34:47.991Z,2.30
2023-03-31T01:35:48.023Z,2.60
2023-03-31T01:36:47.950Z,2.50
2023-03-31T01:37:47.945Z,2.30
2023-03-31T01:38:47.925Z,2.20
2023-03-31T01:39:47.875Z,2.30
2023-03-31T01:40:47.844Z,2.50
2023-03-31T01:41:47.825Z,2.30
2023-03-31T01:42:47.805Z,2.30
2023-03-31T01:43:47.778Z,2.20
2023-03-31T01:44:47.758Z,2.20
2023-03-31T01:45:47.724Z,2.80
2023-03-31T01:46:47.793Z,2.00
2023-03-31T01:47:47.724Z,2.10
2023-03-31T01:48:47.654Z,2.00
2023-03-31T01:49:47.638Z,1.90
2023-03-31T01:50:47.613Z,2.30
2023-03-31T01:51:47.716Z,2.30
2023-03-31T01:52:47.566Z,2.00
2023-03-31T01:53:47.530Z,2.70
2023-03-31T01:54:47.539Z,2.30
2023-03-31T01:55:47.479Z,2.40
2023-03-31T01:56:47.504Z,2.20
2023-03-31T01:57:47.434Z,3.20
2023-03-31T01:58:47.407Z,2.60
2023-03-31T01:59:47.384Z,2.10
2023-03-31T02:00:47.363Z,2.60
2023-03-31T02:01:47.349Z,2.70
2023-03-31T02:02:47.416Z,2.00
2023-03-31T02:03:47.341Z,3.00
2023-03-31T02:04:47.281Z,2.50
2023-03-31T02:05:47.242Z,2.80
2023-03-31T02:06:47.224Z,2.00
2023-03-31T02:07:47.194Z,2.20
2023-03-31T02:08:47.176Z,2.10
2023-03-31T02:09:47.148Z,2.80
2023-03-31T02:10:47.156Z,2.30
2023-03-31T02:11:47.106Z,2.00
2023-03-31T02:12:47.076Z,2.30
2023-03-31T02:13:47.048Z,2.90
2023-03-31T02:14:47.023Z,3.10
2023-03-31T02:15:46.993Z,2.00
2023-03-31T02:16:47.034Z,2.00
2023-03-31T02:17:46.974Z,2.70
2023-03-31T02:18:46.927Z,2.10
2023-03-31T02:19:46.908Z,2.40
2023-03-31T02:20:46.887Z,2.00
2023-03-31T02:21:46.853Z,2.20
2023-03-31T02:22:46.829Z,2.40
2023-03-31T02:23:46.810Z,2.50
2023-03-31T02:24:46.788Z,2.10
2023-03-31T02:25:46.757Z,2.20
2023-03-31T02:26:46.761Z,2.40
2023-03-31T02:27:46.709Z,2.00
2023-03-31T02:28:46.688Z,2.40
2023-03-31T02:29:46.657Z,2.30
2023-03-31T02:30:46.636Z,2.50
2023-03-31T02:31:46.671Z,2.90
2023-03-31T02:32:46.630Z,2.60
2023-03-31T02:33:46.558Z,2.40
2023-03-31T02:34:46.541Z,2.50
2023-03-31T02:35:46.579Z,2.60
2023-03-31T02:36:46.509Z,2.60
2023-03-31T02:37:46.503Z,2.90
2023-03-31T02:38:46.450Z,2.70
2023-03-31T02:39:46.425Z,2.50
2023-03-31T02:40:46.422Z,2.70
2023-03-31T02:41:46.373Z,2.40
2023-03-31T02:42:46.385Z,2.70
2023-03-31T02:43:46.318Z,2.30
2023-03-31T02:44:46.296Z,2.40
2023-03-31T02:45:46.365Z,2.30
2023-03-31T02:46:46.257Z,2.30
2023-03-31T02:47:46.244Z,2.60
2023-03-31T02:48:46.207Z,2.80
2023-03-31T02:49:46.192Z,2.60
2023-03-31T02:50:46.157Z,2.50
2023-03-31T02:51:46.129Z,2.30
2023-03-31T02:52:46.104Z,2.30
2023-03-31T02:53:46.085Z,2.40
2023-03-31T02:54:46.062Z,2.10
2023-03-31T02:55:46.037Z,2.50
2023-03-31T02:56:46.069Z,2.10
2023-03-31T02:57:45.987Z,2.50
2023-03-31T02:58:45.988Z,2.40
2023-03-31T02:59:45.946Z,2.40
2023-03-31T03:00:45.916Z,2.60
2023-03-31T03:01:45.907Z,2.40
2023-03-31T03:02:45.919Z,2.40
2023-03-31T03:03:45.845Z,2.60
2023-03-31T03:04:45.815Z,2.50
2023-03-31T03:05:45.896Z,2.40
2023-03-31T03:06:45.770Z,2.20
2023-03-31T03:07:45.749Z,2.60
2023-03-31T03:08:45.726Z,2.30
2023-03-31T03:09:45.698Z,2.60
2023-03-31T03:10:45.675Z,2.40
2023-03-31T03:11:45.659Z,2.60
2023-03-31T03:12:45.634Z,3.10
2023-03-31T03:13:45.609Z,2.40
2023-03-31T03:14:45.642Z,2.30
2023-03-31T03:15:45.558Z,2.90
2023-03-31T03:16:45.568Z,2.40
2023-03-31T03:17:45.671Z,2.50
2023-03-31T03:18:45.478Z,2.30
2023-03-31T03:19:45.457Z,2.60
2023-03-31T03:20:45.436Z,2.90
2023-03-31T03:21:45.401Z,2.10
2023-03-31T03:22:45.380Z,2.30
2023-03-31T03:23:45.361Z,2.80
2023-03-31T03:24:45.335Z,2.80
2023-03-31T03:25:45.311Z,2.90
2023-03-31T03:26:45.288Z,2.60
2023-03-31T03:27:45.263Z,2.90
2023-03-31T03:28:45.247Z,2.80
2023-03-31T03:29:45.221Z,2.60
2023-03-31T03:30:45.256Z,3.10
2023-03-31T03:31:45.162Z,2.80
2023-03-31T03:32:45.213Z,2.60
2023-03-31T03:33:45.123Z,2.90
2023-03-31T03:34:45.100Z,3.20
2023-03-31T03:35:45.104Z,3.30
2023-03-31T03:36:45.054Z,2.80
2023-03-31T03:37:45.019Z,3.40
2023-03-31T03:38:45.015Z,4.00
2023-03-31T03:39:44.981Z,3.40
2023-03-31T03:40:44.959Z,3.60
2023-03-31T03:41:44.929Z,3.30
2023-03-31T03:42:44.916Z,3.50
2023-03-31T03:43:44.881Z,3.60
2023-03-31T03:44:44.862Z,3.60
2023-03-31T03:45:44.828Z,3.20
2023-03-31T03:46:44.854Z,3.60
2023-03-31T03:47:44.819Z,3.30
2023-03-31T03:48:44.782Z,3.60
2023-03-31T03:49:44.742Z,3.50
2023-03-31T03:50:44.717Z,4.00
2023-03-31T03:51:44.692Z,3.90
2023-03-31T03:52:44.667Z,3.70
2023-03-31T03:53:44.636Z,3.60
2023-03-31T03:54:44.607Z,4.40
2023-03-31T03:55:44.585Z,4.00
2023-03-31T03:56:44.582Z,3.90
2023-03-31T03:57:44.538Z,4.60
2023-03-31T03:58:44.515Z,4.20
2023-03-31T03:59:44.505Z,3.70
2023-03-31T04:00:44.510Z,4.90
2023-03-31T04:01:44.452Z,3.80
2023-03-31T04:02:44.653Z,4.10
2023-03-31T04:03:44.395Z,4.10
2023-03-31T04:04:44.384Z,4.30
2023-03-31T04:05:44.342Z,4.20
2023-03-31T04:06:44.316Z,4.10
2023-03-31T04:07:44.290Z,4.10
2023-03-31T04:08:44.272Z,4.30
2023-03-31T04:09:44.238Z,4.90
2023-03-31T04:10:44.221Z,4.70
2023-03-31T04:11:44.195Z,4.80
2023-03-31T04:12:44.173Z,4.50
2023-03-31T04:13:44.146Z,4.60
2023-03-31T04:14:44.131Z,4.70
2023-03-31T04:15:44.107Z,4.70
2023-03-31T04:16:44.184Z,4.50
2023-03-31T04:17:44.081Z,4.80
2023-03-31T04:18:44.062Z,4.60
2023-03-31T04:19:44.001Z,5.10
2023-03-31T04:20:43.981Z,5.50
2023-03-31T04:21:43.948Z,4.60
2023-03-31T04:22:43.931Z,4.40
2023-03-31T04:23:43.898Z,4.70
2023-03-31T04:24:43.883Z,4.70
2023-03-31T04:25:43.850Z,4.50
2023-03-31T04:26:43.828Z,5.10
2023-03-31T04:27:43.799Z,4.80
2023-03-31T04:28:43.780Z,4.80
2023-03-31T04:29:43.753Z,4.70
2023-03-31T04:30:43.729Z,5.20
2023-03-31T04:31:43.783Z,4.80
2023-03-31T04:32:43.712Z,4.60
2023-03-31T04:33:43.662Z,4.50
2023-03-31T04:34:43.660Z,4.70
2023-03-31T04:35:43.627Z,4.60
2023-03-31T04:36:43.589Z,4.20
2023-03-31T04:37:43.562Z,4.30
2023-03-31T04:38:43.544Z,4.60
2023-03-31T04:39:43.515Z,4.60
2023-03-31T04:40:43.492Z,4.80
2023-03-31T04:41:43.483Z,4.20
2023-03-31T04:42:43.445Z,4.50
2023-03-31T04:43:43.415Z,5.00
2023-03-31T04:44:43.392Z,4.00
2023-03-31T04:45:43.435Z,4.50
2023-03-31T04:46:43.340Z,4.80
2023-03-31T04:47:43.353Z,4.90
2023-03-31T04:48:43.296Z,5.10
2023-03-31T04:49:43.268Z,4.70
2023-03-31T04:50:43.269Z,4.70
2023-03-31T04:51:43.225Z,4.80
2023-03-31T04:52:43.202Z,4.70
2023-03-31T04:53:43.181Z,4.50
2023-03-31T04:54:43.153Z,4.50
2023-03-31T04:55:43.125Z,4.70
2023-03-31T04:56:43.144Z,4.60
2023-03-31T04:57:43.089Z,4.60
2023-03-31T04:58:43.060Z,4.70
2023-03-31T04:59:43.021Z,4.50
2023-03-31T05:00:43.004Z,4.90
2023-03-31T05:01:43.110Z,4.70
2023-03-31T05:02:43.039Z,4.60
2023-03-31T05:03:42.986Z,5.30
2023-03-31T05:04:42.915Z,4.60
2023-03-31T05:05:42.892Z,5.10
2023-03-31T05:06:42.887Z,4.60
2023-03-31T05:07:42.834Z,4.60
2023-03-31T05:08:42.828Z,4.70
2023-03-31T05:09:42.789Z,5.10
2023-03-31T05:10:42.768Z,5.00
2023-03-31T05:11:42.742Z,4.70
2023-03-31T05:12:42.722Z,4.80
2023-03-31T05:13:42.696Z,5.00
2023-03-31T05:14:42.677Z,5.80
2023-03-31T05:15:42.645Z,4.80
2023-03-31T05:16:42.654Z,5.30
2023-03-31T05:17:42.636Z,5.70
2023-03-31T05:18:42.581Z,4.90
2023-03-31T05:19:42.548Z,4.40
2023-03-31T05:20:42.532Z,5.60
2023-03-31T05:21:42.500Z,4.70
2023-03-31T05:22:43.937Z,4.40
2023-03-31T05:23:42.488Z,4.80
2023-03-31T05:24:42.434Z,4.60
2023-03-31T05:25:42.401Z,5.00
2023-03-31T05:26:42.390Z,4.60
2023-03-31T05:27:42.350Z,4.30
2023-03-31T05:28:42.334Z,5.10
2023-03-31T05:29:42.319Z,4.20
2023-03-31T05:30:42.293Z,4.60
2023-03-31T05:31:42.334Z,4.40
2023-03-31T05:32:42.265Z,4.70
2023-03-31T05:33:42.468Z,4.90
2023-03-31T05:34:42.187Z,4.70
2023-03-31T05:35:42.182Z,4.80
2023-03-31T05:36:42.138Z,4.40
2023-03-31T05:37:42.118Z,4.30
2023-03-31T05:38:42.111Z,4.20
2023-03-31T05:39:42.077Z,4.00
2023-03-31T05:40:42.055Z,4.10
2023-03-31T05:41:42.029Z,3.70
2023-03-31T05:42:42.029Z,4.00
2023-03-31T05:43:41.977Z,4.30
2023-03-31T05:44:41.948Z,4.00
2023-03-31T05:45:41.928Z,3.50
2023-03-31T05:46:41.925Z,4.50
2023-03-31T05:47:41.926Z,4.00
2023-03-31T05:48:41.844Z,4.00
2023-03-31T05:49:41.832Z,3.50
2023-03-31T05:50:41.797Z,3.70
2023-03-31T05:51:41.774Z,3.40
2023-03-31T05:52:41.752Z,3.60
2023-03-31T05:53:41.731Z,3.80
2023-03-31T05:54:41.724Z,3.20
2023-03-31T05:55:41.685Z,3.50
2023-03-31T05:56:41.652Z,2.90
2023-03-31T05:57:41.637Z,3.30
2023-03-31T05:58:41.607Z,3.40
2023-03-31T05:59:41.583Z,3.50
2023-03-31T06:00:41.554Z,3.20
2023-03-31T06:01:41.644Z,3.00
2023-03-31T06:02:41.565Z,2.60
2023-03-31T06:03:41.626Z,3.00
2023-03-31T06:04:41.482Z,3.30
2023-03-31T06:05:41.447Z,2.90
2023-03-31T06:06:41.411Z,2.80
2023-03-31T06:07:41.396Z,2.70
2023-03-31T06:08:41.360Z,3.10
2023-03-31T06:09:41.345Z,2.90
2023-03-31T06:10:41.337Z,2.90
2023-03-31T06:11:41.287Z,3.00
2023-03-31T06:12:41.266Z,2.70
2023-03-31T06:13:41.244Z,3.00
2023-03-31T06:14:41.213Z,2.50
2023-03-31T06:15:41.237Z,2.40
2023-03-31T06:16:41.166Z,2.80
2023-03-31T06:17:41.246Z,2.80
2023-03-31T06:18:41.122Z,2.90
2023-03-31T06:19:41.105Z,2.50
2023-03-31T06:20:41.080Z,2.50
2023-03-31T06:21:41.048Z,2.90
2023-03-31T06:22:41.027Z,2.40
2023-03-31T06:23:41.008Z,2.70
2023-03-31T06:24:40.971Z,2.30
2023-03-31T06:25:50.272Z,2.40
2023-03-31T06:26:40.946Z,3.20
2023-03-31T06:27:40.900Z,2.50
2023-03-31T06:28:40.874Z,2.80
2023-03-31T06:29:40.853Z,2.20
2023-03-31T06:30:40.826Z,2.10
2023-03-31T06:31:40.854Z,2.30
2023-03-31T06:32:40.845Z,2.30
2023-03-31T06:33:40.752Z,2.50
2023-03-31T06:34:40.734Z,2.50
2023-03-31T06:35:40.725Z,2.30
2023-03-31T06:36:40.689Z,2.60
2023-03-31T06:37:40.668Z,2.20
2023-03-31T06:38:40.631Z,3.00
2023-03-31T06:39:40.610Z,1.90
2023-03-31T06:40:40.583Z,2.40
2023-03-31T06:41:40.568Z,2.50
2023-03-31T06:42:40.562Z,2.30
2023-03-31T06:43:40.523Z,2.80
2023-03-31T06:44:40.496Z,2.20
2023-03-31T06:45:40.491Z,1.90
2023-03-31T06:46:40.478Z,2.40
2023-03-31T06:47:40.444Z,2.30
2023-03-31T06:48:40.385Z,2.40
2023-03-31T06:49:40.371Z,2.20
2023-03-31T06:50:40.337Z,2.10
2023-03-31T06:51:40.322Z,2.20
2023-03-31T06:52:40.289Z,2.00
2023-03-31T06:53:40.294Z,2.40
2023-03-31T06:54:40.242Z,2.10
2023-03-31T06:55:40.220Z,2.00
2023-03-31T06:56:40.206Z,1.80
2023-03-31T06:57:40.189Z,2.30
2023-03-31T06:58:40.165Z,2.10
2023-03-31T06:59:40.126Z,2.40
2023-03-31T07:00:40.098Z,1.90
2023-03-31T07:01:40.126Z,1.80
2023-03-31T07:02:40.165Z,1.80
2023-03-31T07:03:40.038Z,2.00
2023-03-31T07:04:40.028Z,1.90
2023-03-31T07:05:39.982Z,1.90
2023-03-31T07:06:39.948Z,1.90
2023-03-31T07:07:39.929Z,2.00
2023-03-31T07:08:39.903Z,2.10
2023-03-31T07:09:39.876Z,2.00
2023-03-31T07:10:39.857Z,1.60
2023-03-31T07:11:39.832Z,1.70
2023-03-31T07:12:39.801Z,2.40
2023-03-31T07:13:39.784Z,1.90
2023-03-31T07:14:39.778Z,2.00
2023-03-31T07:15:39.731Z,1.80
2023-03-31T07:16:39.768Z,1.80
2023-03-31T07:17:39.716Z,1.60
2023-03-31T07:19:39.636Z,1.40
2023-03-31T07:20:39.632Z,2.00
2023-03-31T07:21:39.590Z,2.00
2023-03-31T07:22:39.565Z,1.90
2023-03-31T07:23:39.544Z,2.20
2023-03-31T07:24:39.509Z,1.80
2023-03-31T07:25:39.506Z,1.50
2023-03-31T07:26:39.466Z,2.00
2023-03-31T07:27:39.447Z,1.50
2023-03-31T07:28:39.441Z,2.40
2023-03-31T07:29:39.394Z,1.80
2023-03-31T07:30:39.384Z,1.90
2023-03-31T07:31:39.379Z,1.90
2023-03-31T07:32:39.330Z,1.60
2023-03-31T07:33:39.303Z,1.60
2023-03-31T07:34:39.266Z,2.10
2023-03-31T07:35:39.262Z,2.00
2023-03-31T07:36:39.233Z,1.90
2023-03-31T07:37:39.195Z,2.30
2023-03-31T07:38:39.176Z,1.90
2023-03-31T07:39:39.150Z,1.80
2023-03-31T07:40:39.133Z,2.00
2023-03-31T07:41:39.096Z,1.70
2023-03-31T07:42:39.069Z,1.90
2023-03-31T07:43:39.048Z,1.90
2023-03-31T07:44:39.030Z,1.90
2023-03-31T07:45:39.050Z,1.80
2023-03-31T07:46:39.158Z,2.00
2023-03-31T07:47:39.016Z,1.90
2023-03-31T07:48:38.928Z,2.60
2023-03-31T07:49:38.900Z,2.30
2023-03-31T07:50:38.884Z,2.10
2023-03-31T07:51:38.870Z,1.80
2023-03-31T07:52:38.827Z,2.20
2023-03-31T07:53:38.809Z,2.10
2023-03-31T07:54:38.790Z,1.90
2023-03-31T07:55:38.760Z,2.00
2023-03-31T07:56:38.736Z,2.10
2023-03-31T07:57:38.716Z,2.20
2023-03-31T07:58:38.683Z,2.20
2023-03-31T07:59:38.659Z,2.10
2023-03-31T08:00:38.633Z,2.30
2023-03-31T08:01:38.666Z,2.20
2023-03-31T08:02:38.766Z,2.60
2023-03-31T08:03:38.606Z,2.10
2023-03-31T08:04:38.621Z,2.40
2023-03-31T08:05:38.518Z,2.50
2023-03-31T08:06:38.488Z,2.00
2023-03-31T08:07:38.468Z,2.20
2023-03-31T08:08:38.471Z,2.10
2023-03-31T08:09:38.423Z,2.20
2023-03-31T08:10:38.399Z,2.00
2023-03-31T08:11:38.370Z,2.10
2023-03-31T08:12:38.358Z,2.10
2023-03-31T08:13:38.324Z,2.10
2023-03-31T08:14:41.487Z,2.10
2023-03-31T08:15:38.292Z,2.10
2023-03-31T08:16:38.327Z,2.20
2023-03-31T08:17:38.323Z,1.90
2023-03-31T08:18:38.215Z,2.00
2023-03-31T08:19:38.184Z,1.90
2023-03-31T08:20:38.159Z,1.90
2023-03-31T08:21:38.132Z,2.50
2023-03-31T08:22:38.099Z,1.90
2023-03-31T08:23:38.085Z,1.90
2023-03-31T08:24:38.053Z,2.10
2023-03-31T08:25:38.028Z,4.10
2023-03-31T08:26:37.996Z,6.20
2023-03-31T08:27:37.979Z,2.80
2023-03-31T08:28:37.954Z,3.50
2023-03-31T08:29:37.925Z,2.30
2023-03-31T08:30:37.899Z,4.10
2023-03-31T08:31:37.907Z,6.40
2023-03-31T08:32:37.887Z,3.80
2023-03-31T08:33:37.831Z,2.30
2023-03-31T08:34:37.838Z,2.10
2023-03-31T08:35:37.830Z,2.90
2023-03-31T08:36:37.753Z,3.30
2023-03-31T08:37:37.736Z,3.20
2023-03-31T08:38:37.756Z,2.30
2023-03-31T08:39:37.697Z,2.10
2023-03-31T08:40:37.661Z,2.60
2023-03-31T08:41:37.645Z,2.20
2023-03-31T08:42:37.604Z,2.00
2023-03-31T08:43:37.587Z,2.30
2023-03-31T08:44:37.565Z,2.40
2023-03-31T08:45:37.609Z,2.20
2023-03-31T08:46:37.554Z,2.40
2023-03-31T08:47:37.516Z,2.10
2023-03-31T08:48:37.458Z,2.00
2023-03-31T08:49:37.439Z,2.20
2023-03-31T08:50:37.501Z,2.00
2023-03-31T08:51:37.389Z,2.30
2023-03-31T08:52:37.362Z,2.20
2023-03-31T08:53:37.342Z,2.60
2023-03-31T08:54:37.321Z,2.20
2023-03-31T08:55:37.290Z,2.70
2023-03-31T08:56:37.271Z,2.90
2023-03-31T08:57:37.245Z,2.10
2023-03-31T08:58:37.217Z,2.10
2023-03-31T08:59:37.193Z,2.20
2023-03-31T09:00:37.167Z,2.40
2023-03-31T09:01:47.688Z,2.60
2023-03-31T09:02:37.234Z,2.40
2023-03-31T09:03:37.187Z,2.20
2023-03-31T09:04:37.074Z,2.50
2023-03-31T09:05:45.994Z,2.80
2023-03-31T09:06:37.043Z,2.60
2023-03-31T09:07:37.005Z,2.90
2023-03-31T09:08:36.971Z,2.10
2023-03-31T09:09:36.956Z,2.90
2023-03-31T09:10:36.948Z,2.30
2023-03-31T09:11:36.944Z,2.00
2023-03-31T09:12:36.889Z,2.20
2023-03-31T09:13:36.857Z,2.20
2023-03-31T09:14:36.825Z,2.10
2023-03-31T09:15:36.803Z,1.80
2023-03-31T09:16:36.803Z,2.10
2023-03-31T09:17:36.813Z,1.90
2023-03-31T09:18:36.734Z,1.90
2023-03-31T09:19:36.723Z,1.80
2023-03-31T09:20:36.685Z,1.90
2023-03-31T09:21:36.656Z,2.00
2023-03-31T09:22:36.653Z,2.00
2023-03-31T09:23:36.617Z,2.00
2023-03-31T09:24:36.609Z,1.90
2023-03-31T09:25:36.577Z,1.90
2023-03-31T09:26:36.536Z,1.90
2023-03-31T09:27:36.520Z,1.90
2023-03-31T09:28:36.493Z,2.00
2023-03-31T09:29:36.802Z,2.10
2023-03-31T09:30:36.445Z,2.10
2023-03-31T09:31:36.484Z,2.20
2023-03-31T09:32:36.398Z,2.00
2023-03-31T09:33:36.370Z,2.10
2023-03-31T09:34:36.350Z,1.80
2023-03-31T09:35:36.366Z,1.90
2023-03-31T09:36:36.295Z,1.90
2023-03-31T09:37:36.280Z,1.80
2023-03-31T09:38:36.262Z,1.90
2023-03-31T09:39:36.226Z,1.80
2023-03-31T09:40:36.198Z,2.10
2023-03-31T09:41:36.178Z,2.30
2023-03-31T09:42:36.194Z,1.90
2023-03-31T09:43:36.133Z,2.20
2023-03-31T09:44:36.098Z,1.80
2023-03-31T09:45:36.077Z,2.10
2023-03-31T09:46:36.134Z,2.20
2023-03-31T09:47:36.069Z,2.00
2023-03-31T09:48:36.014Z,2.00
2023-03-31T09:49:35.997Z,1.70
2023-03-31T09:50:35.959Z,2.70
2023-03-31T09:51:35.936Z,2.40
2023-03-31T09:52:35.907Z,2.10
2023-03-31T09:53:35.889Z,2.00
2023-03-31T09:54:35.888Z,2.20
2023-03-31T09:55:39.989Z,2.50
2023-03-31T09:56:35.818Z,2.60
2023-03-31T09:57:36.097Z,2.50
2023-03-31T09:58:35.779Z,2.20
2023-03-31T09:59:35.745Z,2.30
2023-03-31T10:00:35.716Z,2.40
2023-03-31T10:01:35.710Z,2.30
2023-03-31T10:02:35.727Z,2.00
2023-03-31T10:03:35.730Z,2.10
2023-03-31T10:04:35.801Z,2.30
2023-03-31T10:05:35.601Z,2.50
2023-03-31T10:06:35.570Z,2.20
2023-03-31T10:07:35.548Z,3.00
2023-03-31T10:08:35.518Z,2.20
2023-03-31T10:09:35.498Z,2.10
2023-03-31T10:10:35.499Z,2.20
2023-03-31T10:11:35.440Z,2.30
2023-03-31T10:12:35.423Z,2.10
2023-03-31T10:13:35.397Z,2.10
2023-03-31T10:14:35.379Z,3.70
2023-03-31T10:15:35.351Z,12.50
2023-03-31T10:16:35.333Z,5.00
2023-03-31T10:17:47.079Z,6.80
2023-03-31T10:18:35.324Z,3.30
2023-03-31T10:19:35.268Z,2.70
2023-03-31T10:20:35.229Z,2.40
2023-03-31T10:21:35.211Z,2.60
2023-03-31T10:22:35.183Z,2.20
2023-03-31T10:23:35.162Z,3.00
2023-03-31T10:24:35.138Z,2.60
2023-03-31T10:25:35.103Z,2.40
2023-03-31T10:26:35.108Z,2.60
2023-03-31T10:27:35.055Z,2.80
2023-03-31T10:28:35.026Z,2.50
2023-03-31T10:29:35.009Z,3.30
2023-03-31T10:30:34.977Z,3.10
2023-03-31T10:31:34.996Z,3.30
2023-03-31T10:32:34.975Z,3.00
2023-03-31T10:33:35.093Z,3.10
2023-03-31T10:34:34.887Z,3.40
2023-03-31T10:35:34.933Z,3.20
2023-03-31T10:36:34.832Z,2.90
2023-03-31T10:37:34.813Z,2.40
2023-03-31T10:38:34.789Z,3.20
2023-03-31T10:39:34.757Z,3.00
2023-03-31T10:40:34.793Z,3.00
2023-03-31T10:41:34.711Z,3.00
2023-03-31T10:42:34.719Z,3.50
2023-03-31T10:43:34.660Z,2.90
2023-03-31T10:44:34.638Z,2.90
2023-03-31T10:45:37.723Z,3.60
2023-03-31T10:46:34.651Z,2.80
2023-03-31T10:47:34.596Z,3.20
2023-03-31T10:48:34.546Z,3.10
2023-03-31T10:49:34.522Z,3.30
2023-03-31T10:50:34.500Z,3.40
2023-03-31T10:51:34.479Z,3.40
2023-03-31T10:52:34.451Z,2.70
2023-03-31T10:53:34.446Z,2.80
2023-03-31T10:54:34.411Z,2.80
2023-03-31T10:55:34.375Z,2.80
2023-03-31T10:56:34.358Z,2.90
2023-03-31T10:57:34.418Z,3.00
2023-03-31T10:58:34.333Z,2.90
2023-03-31T10:59:34.275Z,2.80
2023-03-31T11:00:34.262Z,2.60
2023-03-31T11:01:34.255Z,3.20
2023-03-31T11:02:34.274Z,3.10
2023-03-31T11:03:34.274Z,2.70
2023-03-31T11:04:34.167Z,2.90
2023-03-31T11:05:34.134Z,2.60
2023-03-31T11:06:34.118Z,2.60
2023-03-31T11:07:34.090Z,3.10
2023-03-31T11:08:34.114Z,3.10
2023-03-31T11:09:34.058Z,3.10
2023-03-31T11:10:34.039Z,3.20
2023-03-31T11:11:34.004Z,3.20
2023-03-31T11:12:33.974Z,3.00
2023-03-31T11:13:34.104Z,2.90
2023-03-31T11:14:33.953Z,2.90
2023-03-31T11:15:33.946Z,2.80
2023-03-31T11:16:33.989Z,2.90
2023-03-31T11:17:33.874Z,2.80
2023-03-31T11:18:33.848Z,2.70
2023-03-31T11:19:33.811Z,2.60
2023-03-31T11:20:33.794Z,2.60
2023-03-31T11:21:33.787Z,3.20
2023-03-31T11:22:33.739Z,2.40
2023-03-31T11:23:33.718Z,2.70
2023-03-31T11:24:33.699Z,2.80
2023-03-31T11:25:33.668Z,2.70
2023-03-31T11:26:33.656Z,2.70
2023-03-31T11:27:33.614Z,3.10
2023-03-31T11:28:33.599Z,2.80
2023-03-31T11:29:33.583Z,2.80
2023-03-31T11:30:33.596Z,2.60
2023-03-31T11:31:33.579Z,3.20
2023-03-31T11:32:33.622Z,2.30
2023-03-31T11:33:33.482Z,3.20
2023-03-31T11:34:33.456Z,3.10
2023-03-31T11:35:33.499Z,2.60
2023-03-31T11:36:33.409Z,2.60
2023-03-31T11:37:33.396Z,2.40
2023-03-31T11:38:33.357Z,2.10
2023-03-31T11:39:33.337Z,3.00
2023-03-31T11:40:33.318Z,2.50
2023-03-31T11:41:33.291Z,2.80
2023-03-31T11:42:33.275Z,2.30
2023-03-31T11:43:33.265Z,2.40
2023-03-31T11:44:33.222Z,2.60
2023-03-31T11:45:33.196Z,2.80
2023-03-31T11:46:33.289Z,2.50
2023-03-31T11:47:33.171Z,2.80
2023-03-31T11:48:33.138Z,2.30
2023-03-31T11:49:33.109Z,2.80
2023-03-31T11:50:33.083Z,2.30
2023-03-31T11:51:33.063Z,2.40
2023-03-31T11:52:33.045Z,2.20
2023-03-31T11:53:33.014Z,2.60
2023-03-31T11:54:32.992Z,2.40
2023-03-31T11:55:32.982Z,2.40
2023-03-31T11:56:32.959Z,2.90
2023-03-31T11:57:33.033Z,2.70
2023-03-31T11:58:32.911Z,2.60
2023-03-31T11:59:32.882Z,2.70
2023-03-31T12:00:32.862Z,3.20
2023-03-31T12:01:32.832Z,2.80
2023-03-31T12:02:32.847Z,2.90
2023-03-31T12:03:32.806Z,3.30
2023-03-31T12:04:32.770Z,2.40
2023-03-31T12:05:32.759Z,2.40
2023-03-31T12:06:32.723Z,2.70
2023-03-31T12:07:32.701Z,2.60
2023-03-31T12:08:32.678Z,2.80
2023-03-31T12:09:32.644Z,2.70
2023-03-31T12:10:32.627Z,2.50
2023-03-31T12:11:32.604Z,3.10
2023-03-31T12:12:32.583Z,2.70
2023-03-31T12:13:32.558Z,2.00
2023-03-31T12:14:32.551Z,2.70
2023-03-31T12:15:32.516Z,3.00
2023-03-31T12:16:32.519Z,2.60
2023-03-31T12:17:32.488Z,2.40
2023-03-31T12:18:32.468Z,2.60
2023-03-31T12:19:32.418Z,2.70
2023-03-31T12:20:32.403Z,2.90
2023-03-31T12:21:32.390Z,2.20
2023-03-31T12:22:32.355Z,2.70
2023-03-31T12:23:32.338Z,2.10
2023-03-31T12:24:32.327Z,2.30
2023-03-31T12:25:32.288Z,2.50
2023-03-31T12:26:32.263Z,2.50
2023-03-31T12:27:32.236Z,2.50
2023-03-31T12:28:32.218Z,2.50
2023-03-31T12:29:32.194Z,2.90
2023-03-31T12:30:32.169Z,2.80
2023-03-31T12:31:32.230Z,2.80
2023-03-31T12:32:32.218Z,2.70
2023-03-31T12:33:32.107Z,2.40
2023-03-31T12:34:32.102Z,2.50
2023-03-31T12:35:32.065Z,2.30
2023-03-31T12:36:32.034Z,2.70
2023-03-31T12:37:32.010Z,2.30
2023-03-31T12:38:31.990Z,2.70
2023-03-31T12:39:31.963Z,2.50
2023-03-31T12:40:31.940Z,2.60
2023-03-31T12:41:31.931Z,2.40
2023-03-31T12:42:31.887Z,2.20
2023-03-31T12:43:31.869Z,3.00
2023-03-31T12:44:31.857Z,3.20
2023-03-31T12:45:31.828Z,2.60
2023-03-31T12:46:31.852Z,2.40
2023-03-31T12:47:31.795Z,2.40
2023-03-31T12:48:31.745Z,2.90
2023-03-31T12:49:31.721Z,2.20
2023-03-31T12:50:31.750Z,2.50
2023-03-31T12:51:31.673Z,2.60
2023-03-31T12:52:31.661Z,2.30
2023-03-31T12:53:31.627Z,2.20
2023-03-31T12:54:31.606Z,2.70
2023-03-31T12:55:31.589Z,2.60
2023-03-31T12:56:31.564Z,3.50
2023-03-31T12:57:31.561Z,3.40
2023-03-31T12:58:33.091Z,2.50
2023-03-31T12:59:31.486Z,3.50
2023-03-31T13:00:31.502Z,3.00
2023-03-31T13:01:31.565Z,3.40
2023-03-31T13:02:31.570Z,3.20
2023-03-31T13:03:31.397Z,2.40
2023-03-31T13:04:31.374Z,2.30
2023-03-31T13:05:31.357Z,2.50
2023-03-31T13:06:31.360Z,2.20
2023-03-31T13:07:31.308Z,2.60
2023-03-31T13:08:31.291Z,2.50
2023-03-31T13:09:31.258Z,2.60
2023-03-31T13:10:31.325Z,2.50
2023-03-31T13:11:31.209Z,2.60
2023-03-31T13:12:31.197Z,2.80
2023-03-31T13:13:31.167Z,2.40
2023-03-31T13:14:31.136Z,2.40
2023-03-31T13:15:31.112Z,2.20
2023-03-31T13:16:31.102Z,2.70
2023-03-31T13:17:31.129Z,2.30
2023-03-31T13:18:31.048Z,2.20
2023-03-31T13:19:31.018Z,2.10
2023-03-31T13:20:30.994Z,2.40